Cape Beira — 9V3620 — position and weather

sailwx.info

Track history (hours):
 
Tides and Currents Weather Stations Pressure Air Temp Water Temp Dewpoint Dewpoint Depression Visibility Wind Speed Wind Dir Waves Ship Positions

Cape Beira

Last reported at 2018-Aug-08 08:49 UTC. Time now 2018-Aug-14 13:48 UTC.
Position N 29°21' W 094°44'.

Length 175 m; draft 10 m.

Type: Ship (hazmat cat D). MMSI: 565412000.

Date/timePositionNaut miles runAvg speedWind from/ knotsBaromVisibWave heightAir tempDewpointWater temp
2018-Aug-08 08:49N 29°21' W 094°44'3 8.4
2018-Aug-08 08:30N 29°21' W 094°47'5 8.8
2018-Aug-08 07:59N 29°25' W 094°50'6 9.6
2018-Aug-08 07:24N 29°30' W 094°52'410.2
2018-Aug-08 07:00N 29°33' W 094°55'510.5
2018-Aug-08 06:30N 29°38' W 094°58'4 8.7
2018-Aug-08 06:00N 29°42' W 094°60'3 7.1
2018-Aug-08 05:30N 29°44' W 095°03'3 5.2
2018-Aug-08 04:59N 29°45' W 095°06'0 0.5
2018-Aug-08 04:30N 29°45' W 095°06'0 0.0
2018-Aug-06 12:07N 29°45' W 095°06'0 0.1
2018-Aug-06 12:00N 29°45' W 095°06'1 1.4
2018-Aug-06 11:30N 29°45' W 095°06'3 6.7
2018-Aug-06 11:00N 29°44' W 095°02'4 8.7
2018-Aug-06 10:30N 29°41' W 094°59'611.7
2018-Aug-06 10:00N 29°35' W 094°56'612.7
2018-Aug-06 09:30N 29°30' W 094°52'713.8
2018-Aug-06 09:00N 29°24' W 094°49'612.6
2018-Aug-06 08:30N 29°21' W 094°42'612.9
2018-Aug-06 08:00N 29°18' W 094°36'4 0.1
2018-Aug-04 13:48N 29°17' W 094°32'0 0.0
2018-Aug-03 18:36N 29°17' W 094°32'0 0.0
2018-Aug-03 17:30N 29°17' W 094°32'0 0.0
2018-Aug-03 16:24N 29°17' W 094°32'0 0.0
2018-Aug-02 18:38N 29°17' W 094°32'0 0.0
2018-Aug-02 18:29N 29°17' W 094°32'0 0.0
2018-Aug-02 17:41N 29°17' W 094°32'0 0.0
2018-Aug-02 14:53N 29°17' W 094°32'0 0.1
2018-Aug-02 14:08N 29°17' W 094°32'0 0.0
2018-Aug-02 13:50N 29°17' W 094°32'0 0.1
2018-Aug-02 10:35N 29°17' W 094°32'0 0.2
2018-Aug-02 09:35N 29°17' W 094°32'0 0.1
2018-Aug-02 09:29N 29°17' W 094°32'0 0.1
2018-Aug-02 08:56N 29°17' W 094°32'0 0.0
2018-Aug-01 13:58N 29°17' W 094°32'0 0.0
2018-Aug-01 13:13N 29°17' W 094°32'0 0.0
2018-Aug-01 12:40N 29°17' W 094°32'0 0.0
2018-Aug-01 12:22N 29°17' W 094°32'0 0.1
2018-Aug-01 11:55N 29°17' W 094°32'23 1.7
2018-Jul-31 22:16N 29°03' W 094°11'413.5
2018-Jul-31 22:00N 29°00' W 094°08'913.3
2018-Jul-31 21:22N 28°55' W 093°60'512.8
2018-Jul-31 20:58N 28°52' W 093°55'  
Track history (hours):
 
Tides and Currents Weather Stations Pressure Air Temp Water Temp Dewpoint Dewpoint Depression Visibility Wind Speed Wind Dir Waves Ship Positions

Cape Beira

Last reported at 2018-Aug-08 08:49 UTC. Time now 2018-Aug-14 13:48 UTC.
Position N 29°21' W 094°44'.

Length 175 m; draft 10 m.

Type: Ship (hazmat cat D). MMSI: 565412000.

Date/timePositionNaut miles runAvg speedWind from/ knotsBaromVisibWave heightAir tempDewpointWater temp
2018-Aug-08 08:49N 29°21' W 094°44'3 8.4
2018-Aug-08 08:30N 29°21' W 094°47'5 8.8
2018-Aug-08 07:59N 29°25' W 094°50'6 9.6
2018-Aug-08 07:24N 29°30' W 094°52'410.2
2018-Aug-08 07:00N 29°33' W 094°55'510.5
2018-Aug-08 06:30N 29°38' W 094°58'4 8.7
2018-Aug-08 06:00N 29°42' W 094°60'3 7.1
2018-Aug-08 05:30N 29°44' W 095°03'3 5.2
2018-Aug-08 04:59N 29°45' W 095°06'0 0.5
2018-Aug-08 04:30N 29°45' W 095°06'0 0.0
2018-Aug-06 12:07N 29°45' W 095°06'0 0.1
2018-Aug-06 12:00N 29°45' W 095°06'1 1.4
2018-Aug-06 11:30N 29°45' W 095°06'3 6.7
2018-Aug-06 11:00N 29°44' W 095°02'4 8.7
2018-Aug-06 10:30N 29°41' W 094°59'611.7
2018-Aug-06 10:00N 29°35' W 094°56'612.7
2018-Aug-06 09:30N 29°30' W 094°52'713.8
2018-Aug-06 09:00N 29°24' W 094°49'612.6
2018-Aug-06 08:30N 29°21' W 094°42'612.9
2018-Aug-06 08:00N 29°18' W 094°36'4 0.1
2018-Aug-04 13:48N 29°17' W 094°32'0 0.0
2018-Aug-03 18:36N 29°17' W 094°32'0 0.0
2018-Aug-03 17:30N 29°17' W 094°32'0 0.0
2018-Aug-03 16:24N 29°17' W 094°32'0 0.0
2018-Aug-02 18:38N 29°17' W 094°32'0 0.0
2018-Aug-02 18:29N 29°17' W 094°32'0 0.0
2018-Aug-02 17:41N 29°17' W 094°32'0 0.0
2018-Aug-02 14:53N 29°17' W 094°32'0 0.1
2018-Aug-02 14:08N 29°17' W 094°32'0 0.0
2018-Aug-02 13:50N 29°17' W 094°32'0 0.1
2018-Aug-02 10:35N 29°17' W 094°32'0 0.2
2018-Aug-02 09:35N 29°17' W 094°32'0 0.1
2018-Aug-02 09:29N 29°17' W 094°32'0 0.1
2018-Aug-02 08:56N 29°17' W 094°32'0 0.0
2018-Aug-01 13:58N 29°17' W 094°32'0 0.0
2018-Aug-01 13:13N 29°17' W 094°32'0 0.0
2018-Aug-01 12:40N 29°17' W 094°32'0 0.0
2018-Aug-01 12:22N 29°17' W 094°32'0 0.1
2018-Aug-01 11:55N 29°17' W 094°32'23 1.7
2018-Jul-31 22:16N 29°03' W 094°11'413.5
2018-Jul-31 22:00N 29°00' W 094°08'913.3
2018-Jul-31 21:22N 28°55' W 093°60'512.8
2018-Jul-31 20:58N 28°52' W 093°55'  

Dump ship's entire track history